sensor_id;sensor_type;location;lat;lon;timestamp;P1;durP1;ratioP1;P2;durP2;ratioP2
71202;SDS011;58929;47.490;19.090;2023-01-29T00:02:17;53.53;;;29.98;;
71202;SDS011;58929;47.490;19.090;2023-01-29T00:04:45;50.78;;;28.92;;
71202;SDS011;58929;47.490;19.090;2023-01-29T00:07:13;52.42;;;30.27;;
71202;SDS011;58929;47.490;19.090;2023-01-29T00:09:43;57.40;;;30.80;;
71202;SDS011;58929;47.490;19.090;2023-01-29T00:12:11;60.83;;;31.48;;
71202;SDS011;58929;47.490;19.090;2023-01-29T00:14:41;55.28;;;30.00;;
71202;SDS011;58929;47.490;19.090;2023-01-29T00:17:09;54.08;;;31.73;;
71202;SDS011;58929;47.490;19.090;2023-01-29T00:19:37;52.58;;;30.55;;
71202;SDS011;58929;47.490;19.090;2023-01-29T00:22:05;57.75;;;31.45;;
71202;SDS011;58929;47.490;19.090;2023-01-29T00:24:43;54.90;;;32.05;;
71202;SDS011;58929;47.490;19.090;2023-01-29T00:27:11;53.70;;;30.80;;
71202;SDS011;58929;47.490;19.090;2023-01-29T00:29:40;56.13;;;31.50;;
71202;SDS011;58929;47.490;19.090;2023-01-29T00:32:09;56.20;;;31.58;;
71202;SDS011;58929;47.490;19.090;2023-01-29T00:34:37;61.58;;;33.42;;
71202;SDS011;58929;47.490;19.090;2023-01-29T00:37:05;59.15;;;33.85;;
71202;SDS011;58929;47.490;19.090;2023-01-29T00:39:34;57.40;;;28.85;;
71202;SDS011;58929;47.490;19.090;2023-01-29T00:42:15;58.13;;;32.95;;
71202;SDS011;58929;47.490;19.090;2023-01-29T00:45:00;60.17;;;32.60;;
71202;SDS011;58929;47.490;19.090;2023-01-29T00:47:28;53.80;;;29.60;;
71202;SDS011;58929;47.490;19.090;2023-01-29T00:50:04;56.80;;;30.42;;
71202;SDS011;58929;47.490;19.090;2023-01-29T00:52:32;56.45;;;31.90;;
71202;SDS011;58929;47.490;19.090;2023-01-29T00:55:02;55.15;;;30.42;;
71202;SDS011;58929;47.490;19.090;2023-01-29T00:57:33;53.65;;;30.02;;
71202;SDS011;58929;47.490;19.090;2023-01-29T01:00:02;59.22;;;33.25;;
71202;SDS011;58929;47.490;19.090;2023-01-29T01:02:30;53.63;;;29.23;;
71202;SDS011;58929;47.490;19.090;2023-01-29T01:05:17;55.35;;;29.65;;
71202;SDS011;58929;47.490;19.090;2023-01-29T01:07:45;55.72;;;30.80;;
71202;SDS011;58929;47.490;19.090;2023-01-29T01:10:15;49.33;;;28.73;;
71202;SDS011;58929;47.490;19.090;2023-01-29T01:12:50;51.42;;;28.50;;
71202;SDS011;58929;47.490;19.090;2023-01-29T01:15:20;55.03;;;30.05;;
71202;SDS011;58929;47.490;19.090;2023-01-29T01:17:51;52.47;;;28.52;;
71202;SDS011;58929;47.490;19.090;2023-01-29T01:20:19;60.67;;;31.83;;
71202;SDS011;58929;47.490;19.090;2023-01-29T01:22:47;54.55;;;29.40;;
71202;SDS011;58929;47.490;19.090;2023-01-29T01:25:15;58.28;;;31.95;;
71202;SDS011;58929;47.490;19.090;2023-01-29T01:27:43;50.72;;;29.10;;
71202;SDS011;58929;47.490;19.090;2023-01-29T01:30:13;56.13;;;30.25;;
71202;SDS011;58929;47.490;19.090;2023-01-29T01:32:42;57.13;;;31.45;;
71202;SDS011;58929;47.490;19.090;2023-01-29T01:35:10;55.38;;;31.35;;
71202;SDS011;58929;47.490;19.090;2023-01-29T01:37:39;53.58;;;30.65;;
71202;SDS011;58929;47.490;19.090;2023-01-29T01:40:09;56.90;;;31.33;;
71202;SDS011;58929;47.490;19.090;2023-01-29T01:42:44;57.65;;;32.40;;
71202;SDS011;58929;47.490;19.090;2023-01-29T01:45:18;58.10;;;30.80;;
71202;SDS011;58929;47.490;19.090;2023-01-29T01:47:47;55.03;;;30.45;;
71202;SDS011;58929;47.490;19.090;2023-01-29T01:50:16;54.83;;;30.13;;
71202;SDS011;58929;47.490;19.090;2023-01-29T01:52:45;53.72;;;29.35;;
71202;SDS011;58929;47.490;19.090;2023-01-29T01:55:16;56.53;;;29.98;;
71202;SDS011;58929;47.490;19.090;2023-01-29T01:57:46;58.47;;;31.02;;
71202;SDS011;58929;47.490;19.090;2023-01-29T02:00:19;55.80;;;29.88;;
71202;SDS011;58929;47.490;19.090;2023-01-29T02:02:50;51.75;;;28.58;;
71202;SDS011;58929;47.490;19.090;2023-01-29T02:05:36;49.83;;;28.08;;
71202;SDS011;58929;47.490;19.090;2023-01-29T02:08:24;52.63;;;28.83;;
71202;SDS011;58929;47.490;19.090;2023-01-29T02:11:12;58.20;;;29.80;;
71202;SDS011;58929;47.490;19.090;2023-01-29T02:13:40;57.95;;;31.85;;
71202;SDS011;58929;47.490;19.090;2023-01-29T02:16:10;50.58;;;28.30;;
71202;SDS011;58929;47.490;19.090;2023-01-29T02:18:38;52.58;;;28.15;;
71202;SDS011;58929;47.490;19.090;2023-01-29T02:21:12;56.53;;;30.15;;
71202;SDS011;58929;47.490;19.090;2023-01-29T02:26:39;55.63;;;28.83;;
71202;SDS011;58929;47.490;19.090;2023-01-29T02:29:20;58.33;;;31.38;;
71202;SDS011;58929;47.490;19.090;2023-01-29T02:31:53;50.08;;;27.92;;
71202;SDS011;58929;47.490;19.090;2023-01-29T02:34:25;57.40;;;30.20;;
71202;SDS011;58929;47.490;19.090;2023-01-29T02:36:58;52.00;;;30.05;;
71202;SDS011;58929;47.490;19.090;2023-01-29T02:39:30;57.95;;;30.75;;
71202;SDS011;58929;47.490;19.090;2023-01-29T02:42:02;53.42;;;29.55;;
71202;SDS011;58929;47.490;19.090;2023-01-29T02:44:39;57.15;;;30.60;;
71202;SDS011;58929;47.490;19.090;2023-01-29T02:47:09;58.13;;;31.48;;
71202;SDS011;58929;47.490;19.090;2023-01-29T02:49:42;56.90;;;29.90;;
71202;SDS011;58929;47.490;19.090;2023-01-29T02:52:13;54.47;;;29.27;;
71202;SDS011;58929;47.490;19.090;2023-01-29T02:54:44;55.58;;;30.67;;
71202;SDS011;58929;47.490;19.090;2023-01-29T02:57:15;60.70;;;32.80;;
71202;SDS011;58929;47.490;19.090;2023-01-29T02:59:48;51.10;;;28.90;;
71202;SDS011;58929;47.490;19.090;2023-01-29T03:02:17;54.75;;;29.80;;
71202;SDS011;58929;47.490;19.090;2023-01-29T03:04:48;50.08;;;28.80;;
71202;SDS011;58929;47.490;19.090;2023-01-29T03:07:17;52.50;;;29.10;;
71202;SDS011;58929;47.490;19.090;2023-01-29T03:10:03;55.70;;;31.00;;
71202;SDS011;58929;47.490;19.090;2023-01-29T03:12:36;50.40;;;28.80;;
71202;SDS011;58929;47.490;19.090;2023-01-29T03:15:07;50.63;;;27.88;;
71202;SDS011;58929;47.490;19.090;2023-01-29T03:17:46;53.15;;;29.85;;
71202;SDS011;58929;47.490;19.090;2023-01-29T03:20:15;55.88;;;30.38;;
71202;SDS011;58929;47.490;19.090;2023-01-29T03:22:46;54.25;;;30.23;;
71202;SDS011;58929;47.490;19.090;2023-01-29T03:25:17;53.80;;;28.33;;
71202;SDS011;58929;47.490;19.090;2023-01-29T03:28:04;50.78;;;27.00;;
71202;SDS011;58929;47.490;19.090;2023-01-29T03:30:52;51.38;;;28.77;;
71202;SDS011;58929;47.490;19.090;2023-01-29T03:33:46;51.38;;;27.98;;
71202;SDS011;58929;47.490;19.090;2023-01-29T03:36:17;51.58;;;28.02;;
71202;SDS011;58929;47.490;19.090;2023-01-29T03:38:47;47.05;;;26.92;;
71202;SDS011;58929;47.490;19.090;2023-01-29T03:41:18;48.13;;;26.58;;
71202;SDS011;58929;47.490;19.090;2023-01-29T03:43:50;50.85;;;27.25;;
71202;SDS011;58929;47.490;19.090;2023-01-29T03:46:22;49.67;;;27.33;;
71202;SDS011;58929;47.490;19.090;2023-01-29T03:48:56;49.08;;;26.55;;
71202;SDS011;58929;47.490;19.090;2023-01-29T03:51:29;50.40;;;26.63;;
71202;SDS011;58929;47.490;19.090;2023-01-29T03:54:02;45.08;;;25.77;;
71202;SDS011;58929;47.490;19.090;2023-01-29T03:56:35;47.17;;;27.70;;
71202;SDS011;58929;47.490;19.090;2023-01-29T03:59:08;51.92;;;26.58;;
71202;SDS011;58929;47.490;19.090;2023-01-29T04:02:00;49.10;;;27.02;;
71202;SDS011;58929;47.490;19.090;2023-01-29T04:04:30;48.97;;;27.35;;
71202;SDS011;58929;47.490;19.090;2023-01-29T04:07:03;44.67;;;24.48;;
71202;SDS011;58929;47.490;19.090;2023-01-29T04:09:33;48.65;;;27.25;;
71202;SDS011;58929;47.490;19.090;2023-01-29T04:12:04;46.92;;;25.23;;
71202;SDS011;58929;47.490;19.090;2023-01-29T04:14:37;45.03;;;24.73;;
71202;SDS011;58929;47.490;19.090;2023-01-29T04:17:08;49.30;;;25.92;;
71202;SDS011;58929;47.490;19.090;2023-01-29T04:19:55;47.78;;;25.77;;
71202;SDS011;58929;47.490;19.090;2023-01-29T04:22:23;47.05;;;25.23;;
71202;SDS011;58929;47.490;19.090;2023-01-29T04:24:52;45.70;;;24.63;;
71202;SDS011;58929;47.490;19.090;2023-01-29T04:27:23;43.92;;;25.10;;
71202;SDS011;58929;47.490;19.090;2023-01-29T04:30:03;47.47;;;25.67;;
71202;SDS011;58929;47.490;19.090;2023-01-29T04:32:39;44.40;;;25.35;;
71202;SDS011;58929;47.490;19.090;2023-01-29T04:35:16;43.97;;;24.17;;
71202;SDS011;58929;47.490;19.090;2023-01-29T04:37:52;46.25;;;24.30;;
71202;SDS011;58929;47.490;19.090;2023-01-29T04:40:22;43.80;;;26.08;;
71202;SDS011;58929;47.490;19.090;2023-01-29T04:42:54;45.72;;;25.92;;
71202;SDS011;58929;47.490;19.090;2023-01-29T04:45:27;42.60;;;24.55;;
71202;SDS011;58929;47.490;19.090;2023-01-29T04:48:03;41.35;;;24.02;;
71202;SDS011;58929;47.490;19.090;2023-01-29T04:50:37;46.58;;;25.42;;
71202;SDS011;58929;47.490;19.090;2023-01-29T04:53:06;41.10;;;23.42;;
71202;SDS011;58929;47.490;19.090;2023-01-29T04:55:39;42.58;;;24.30;;
71202;SDS011;58929;47.490;19.090;2023-01-29T04:58:10;52.60;;;27.65;;
71202;SDS011;58929;47.490;19.090;2023-01-29T05:00:39;43.55;;;24.52;;
71202;SDS011;58929;47.490;19.090;2023-01-29T05:03:11;39.70;;;23.83;;
71202;SDS011;58929;47.490;19.090;2023-01-29T05:05:41;44.72;;;25.38;;
71202;SDS011;58929;47.490;19.090;2023-01-29T05:08:11;42.63;;;24.48;;
71202;SDS011;58929;47.490;19.090;2023-01-29T05:10:40;41.15;;;22.88;;
71202;SDS011;58929;47.490;19.090;2023-01-29T05:13:09;39.42;;;21.98;;
71202;SDS011;58929;47.490;19.090;2023-01-29T05:15:38;34.50;;;20.65;;
71202;SDS011;58929;47.490;19.090;2023-01-29T05:18:07;41.95;;;21.00;;
71202;SDS011;58929;47.490;19.090;2023-01-29T05:20:37;36.80;;;20.98;;
71202;SDS011;58929;47.490;19.090;2023-01-29T05:23:08;34.15;;;20.30;;
71202;SDS011;58929;47.490;19.090;2023-01-29T05:25:36;37.47;;;19.98;;
71202;SDS011;58929;47.490;19.090;2023-01-29T05:28:04;34.58;;;18.92;;
71202;SDS011;58929;47.490;19.090;2023-01-29T05:30:32;36.33;;;18.55;;
71202;SDS011;58929;47.490;19.090;2023-01-29T05:33:00;36.40;;;20.27;;
71202;SDS011;58929;47.490;19.090;2023-01-29T05:35:29;35.60;;;18.20;;
71202;SDS011;58929;47.490;19.090;2023-01-29T05:37:58;34.13;;;18.75;;
71202;SDS011;58929;47.490;19.090;2023-01-29T05:40:26;36.15;;;19.50;;
71202;SDS011;58929;47.490;19.090;2023-01-29T05:42:54;37.35;;;19.10;;
71202;SDS011;58929;47.490;19.090;2023-01-29T05:45:22;33.90;;;18.67;;
71202;SDS011;58929;47.490;19.090;2023-01-29T05:47:50;33.38;;;18.67;;
71202;SDS011;58929;47.490;19.090;2023-01-29T05:50:22;37.30;;;19.45;;
71202;SDS011;58929;47.490;19.090;2023-01-29T05:52:54;36.30;;;19.15;;
71202;SDS011;58929;47.490;19.090;2023-01-29T05:55:23;35.20;;;19.77;;
71202;SDS011;58929;47.490;19.090;2023-01-29T05:57:51;39.13;;;20.00;;
71202;SDS011;58929;47.490;19.090;2023-01-29T06:00:19;43.05;;;21.13;;
71202;SDS011;58929;47.490;19.090;2023-01-29T06:02:48;34.85;;;18.42;;
71202;SDS011;58929;47.490;19.090;2023-01-29T06:05:16;38.80;;;19.10;;
71202;SDS011;58929;47.490;19.090;2023-01-29T06:07:44;34.15;;;17.80;;
71202;SDS011;58929;47.490;19.090;2023-01-29T06:10:12;33.97;;;18.40;;
71202;SDS011;58929;47.490;19.090;2023-01-29T06:12:43;33.30;;;17.05;;
71202;SDS011;58929;47.490;19.090;2023-01-29T06:15:11;33.83;;;19.02;;
71202;SDS011;58929;47.490;19.090;2023-01-29T06:17:41;29.63;;;17.38;;
71202;SDS011;58929;47.490;19.090;2023-01-29T06:20:09;34.83;;;17.83;;
71202;SDS011;58929;47.490;19.090;2023-01-29T06:22:37;33.75;;;18.75;;
71202;SDS011;58929;47.490;19.090;2023-01-29T06:25:06;31.80;;;18.40;;
71202;SDS011;58929;47.490;19.090;2023-01-29T06:27:34;34.15;;;18.23;;
71202;SDS011;58929;47.490;19.090;2023-01-29T06:30:04;31.67;;;18.05;;
71202;SDS011;58929;47.490;19.090;2023-01-29T06:32:33;32.78;;;17.63;;
71202;SDS011;58929;47.490;19.090;2023-01-29T06:35:02;29.85;;;17.40;;
71202;SDS011;58929;47.490;19.090;2023-01-29T06:37:30;31.23;;;17.67;;
71202;SDS011;58929;47.490;19.090;2023-01-29T06:39:59;29.48;;;17.08;;
71202;SDS011;58929;47.490;19.090;2023-01-29T06:42:27;30.35;;;17.65;;
71202;SDS011;58929;47.490;19.090;2023-01-29T06:44:55;32.17;;;18.70;;
71202;SDS011;58929;47.490;19.090;2023-01-29T06:47:25;30.10;;;17.10;;
71202;SDS011;58929;47.490;19.090;2023-01-29T06:49:54;30.48;;;17.70;;
71202;SDS011;58929;47.490;19.090;2023-01-29T06:52:23;31.45;;;18.00;;
71202;SDS011;58929;47.490;19.090;2023-01-29T06:54:54;29.45;;;17.15;;
71202;SDS011;58929;47.490;19.090;2023-01-29T06:57:22;32.97;;;17.85;;
71202;SDS011;58929;47.490;19.090;2023-01-29T06:59:53;31.75;;;18.48;;
71202;SDS011;58929;47.490;19.090;2023-01-29T07:02:21;32.58;;;18.30;;
71202;SDS011;58929;47.490;19.090;2023-01-29T07:04:50;28.77;;;17.45;;
71202;SDS011;58929;47.490;19.090;2023-01-29T07:07:18;31.77;;;16.55;;
71202;SDS011;58929;47.490;19.090;2023-01-29T07:09:46;29.90;;;17.33;;
71202;SDS011;58929;47.490;19.090;2023-01-29T07:12:14;34.20;;;18.27;;
71202;SDS011;58929;47.490;19.090;2023-01-29T07:14:42;27.60;;;17.05;;
71202;SDS011;58929;47.490;19.090;2023-01-29T07:17:10;29.73;;;16.92;;
71202;SDS011;58929;47.490;19.090;2023-01-29T07:19:38;27.77;;;17.02;;
71202;SDS011;58929;47.490;19.090;2023-01-29T07:22:08;27.25;;;16.48;;
71202;SDS011;58929;47.490;19.090;2023-01-29T07:24:36;25.85;;;16.33;;
71202;SDS011;58929;47.490;19.090;2023-01-29T07:27:05;27.02;;;17.15;;
71202;SDS011;58929;47.490;19.090;2023-01-29T07:29:34;29.45;;;17.15;;
71202;SDS011;58929;47.490;19.090;2023-01-29T07:32:03;29.42;;;16.27;;
71202;SDS011;58929;47.490;19.090;2023-01-29T07:34:32;31.25;;;17.30;;
71202;SDS011;58929;47.490;19.090;2023-01-29T07:37:01;26.10;;;16.48;;
71202;SDS011;58929;47.490;19.090;2023-01-29T07:39:32;29.27;;;17.42;;
71202;SDS011;58929;47.490;19.090;2023-01-29T07:42:01;27.38;;;15.70;;
71202;SDS011;58929;47.490;19.090;2023-01-29T07:44:29;25.75;;;15.85;;
71202;SDS011;58929;47.490;19.090;2023-01-29T07:46:57;25.45;;;15.93;;
71202;SDS011;58929;47.490;19.090;2023-01-29T07:49:25;27.77;;;16.55;;
71202;SDS011;58929;47.490;19.090;2023-01-29T07:51:53;27.33;;;15.88;;
71202;SDS011;58929;47.490;19.090;2023-01-29T07:54:21;27.98;;;16.15;;
71202;SDS011;58929;47.490;19.090;2023-01-29T07:56:51;28.40;;;16.52;;
71202;SDS011;58929;47.490;19.090;2023-01-29T07:59:20;26.85;;;16.67;;
71202;SDS011;58929;47.490;19.090;2023-01-29T08:01:48;29.92;;;16.20;;
71202;SDS011;58929;47.490;19.090;2023-01-29T08:04:16;27.77;;;16.50;;
71202;SDS011;58929;47.490;19.090;2023-01-29T08:06:44;22.90;;;15.18;;
71202;SDS011;58929;47.490;19.090;2023-01-29T08:09:15;26.35;;;15.65;;
71202;SDS011;58929;47.490;19.090;2023-01-29T08:11:46;26.05;;;15.95;;
71202;SDS011;58929;47.490;19.090;2023-01-29T08:14:16;37.88;;;20.05;;
71202;SDS011;58929;47.490;19.090;2023-01-29T08:16:44;24.73;;;16.05;;
71202;SDS011;58929;47.490;19.090;2023-01-29T08:19:12;26.90;;;14.68;;
71202;SDS011;58929;47.490;19.090;2023-01-29T08:21:40;25.20;;;15.10;;
71202;SDS011;58929;47.490;19.090;2023-01-29T08:24:08;28.35;;;14.70;;
71202;SDS011;58929;47.490;19.090;2023-01-29T08:26:38;23.80;;;14.57;;
71202;SDS011;58929;47.490;19.090;2023-01-29T08:29:06;22.73;;;13.55;;
71202;SDS011;58929;47.490;19.090;2023-01-29T08:31:36;22.67;;;14.05;;
71202;SDS011;58929;47.490;19.090;2023-01-29T08:34:04;24.98;;;14.27;;
71202;SDS011;58929;47.490;19.090;2023-01-29T08:36:32;23.48;;;14.63;;
71202;SDS011;58929;47.490;19.090;2023-01-29T08:39:00;22.77;;;13.23;;
71202;SDS011;58929;47.490;19.090;2023-01-29T08:41:28;21.63;;;12.77;;
71202;SDS011;58929;47.490;19.090;2023-01-29T08:43:56;23.85;;;13.35;;
71202;SDS011;58929;47.490;19.090;2023-01-29T08:46:26;26.38;;;12.88;;
71202;SDS011;58929;47.490;19.090;2023-01-29T08:48:55;23.27;;;13.70;;
71202;SDS011;58929;47.490;19.090;2023-01-29T08:51:24;24.20;;;13.45;;
71202;SDS011;58929;47.490;19.090;2023-01-29T08:53:52;26.38;;;15.20;;
71202;SDS011;58929;47.490;19.090;2023-01-29T08:56:20;24.05;;;14.55;;
71202;SDS011;58929;47.490;19.090;2023-01-29T08:58:48;28.23;;;14.95;;
71202;SDS011;58929;47.490;19.090;2023-01-29T09:01:16;27.67;;;15.57;;
71202;SDS011;58929;47.490;19.090;2023-01-29T09:03:44;24.27;;;14.15;;
71202;SDS011;58929;47.490;19.090;2023-01-29T09:06:13;27.23;;;14.60;;
71202;SDS011;58929;47.490;19.090;2023-01-29T09:08:41;23.35;;;13.32;;
71202;SDS011;58929;47.490;19.090;2023-01-29T09:11:09;23.55;;;13.65;;
71202;SDS011;58929;47.490;19.090;2023-01-29T09:13:37;21.08;;;13.18;;
71202;SDS011;58929;47.490;19.090;2023-01-29T09:16:05;20.45;;;12.73;;
71202;SDS011;58929;47.490;19.090;2023-01-29T09:18:34;23.33;;;13.15;;
71202;SDS011;58929;47.490;19.090;2023-01-29T09:21:02;21.70;;;13.38;;
71202;SDS011;58929;47.490;19.090;2023-01-29T09:23:32;29.75;;;14.25;;
71202;SDS011;58929;47.490;19.090;2023-01-29T09:26:00;21.98;;;12.93;;
71202;SDS011;58929;47.490;19.090;2023-01-29T09:28:28;22.30;;;13.18;;
71202;SDS011;58929;47.490;19.090;2023-01-29T09:30:59;18.38;;;12.23;;
71202;SDS011;58929;47.490;19.090;2023-01-29T09:33:27;22.15;;;12.93;;
71202;SDS011;58929;47.490;19.090;2023-01-29T09:35:56;20.50;;;12.43;;
71202;SDS011;58929;47.490;19.090;2023-01-29T09:38:24;21.48;;;12.55;;
71202;SDS011;58929;47.490;19.090;2023-01-29T09:40:56;22.02;;;13.32;;
71202;SDS011;58929;47.490;19.090;2023-01-29T09:43:26;24.58;;;12.75;;
71202;SDS011;58929;47.490;19.090;2023-01-29T09:45:57;23.88;;;14.45;;
71202;SDS011;58929;47.490;19.090;2023-01-29T09:48:27;19.00;;;12.35;;
71202;SDS011;58929;47.490;19.090;2023-01-29T09:50:57;20.77;;;12.35;;
71202;SDS011;58929;47.490;19.090;2023-01-29T09:53:28;23.08;;;12.85;;
71202;SDS011;58929;47.490;19.090;2023-01-29T09:56:00;21.17;;;12.43;;
71202;SDS011;58929;47.490;19.090;2023-01-29T09:58:30;23.73;;;12.50;;
71202;SDS011;58929;47.490;19.090;2023-01-29T10:01:00;20.50;;;12.63;;
71202;SDS011;58929;47.490;19.090;2023-01-29T10:06:19;21.63;;;12.10;;
71202;SDS011;58929;47.490;19.090;2023-01-29T10:08:57;20.35;;;12.85;;
71202;SDS011;58929;47.490;19.090;2023-01-29T10:11:34;17.88;;;11.80;;
71202;SDS011;58929;47.490;19.090;2023-01-29T10:14:09;20.23;;;11.35;;
71202;SDS011;58929;47.490;19.090;2023-01-29T10:16:42;19.67;;;12.32;;
71202;SDS011;58929;47.490;19.090;2023-01-29T10:19:28;19.38;;;11.98;;
71202;SDS011;58929;47.490;19.090;2023-01-29T10:22:06;18.10;;;11.00;;
71202;SDS011;58929;47.490;19.090;2023-01-29T10:24:40;22.80;;;13.98;;
71202;SDS011;58929;47.490;19.090;2023-01-29T10:27:12;20.52;;;12.43;;
71202;SDS011;58929;47.490;19.090;2023-01-29T10:29:42;24.20;;;11.90;;
71202;SDS011;58929;47.490;19.090;2023-01-29T10:32:12;17.13;;;10.55;;
71202;SDS011;58929;47.490;19.090;2023-01-29T10:34:41;18.65;;;11.10;;
71202;SDS011;58929;47.490;19.090;2023-01-29T10:37:13;18.40;;;10.88;;
71202;SDS011;58929;47.490;19.090;2023-01-29T10:39:43;21.50;;;12.02;;
71202;SDS011;58929;47.490;19.090;2023-01-29T10:42:18;16.58;;;10.68;;
71202;SDS011;58929;47.490;19.090;2023-01-29T10:44:55;17.13;;;10.23;;
71202;SDS011;58929;47.490;19.090;2023-01-29T10:47:31;18.33;;;10.13;;
71202;SDS011;58929;47.490;19.090;2023-01-29T10:50:04;20.40;;;9.85;;
71202;SDS011;58929;47.490;19.090;2023-01-29T10:52:39;19.42;;;11.80;;
71202;SDS011;58929;47.490;19.090;2023-01-29T10:55:13;15.88;;;10.18;;
71202;SDS011;58929;47.490;19.090;2023-01-29T10:57:54;17.15;;;9.85;;
71202;SDS011;58929;47.490;19.090;2023-01-29T11:00:29;18.75;;;10.40;;
71202;SDS011;58929;47.490;19.090;2023-01-29T11:02:58;18.52;;;10.63;;
71202;SDS011;58929;47.490;19.090;2023-01-29T11:05:48;18.45;;;10.98;;
71202;SDS011;58929;47.490;19.090;2023-01-29T11:08:19;16.27;;;10.55;;
71202;SDS011;58929;47.490;19.090;2023-01-29T11:10:50;19.85;;;10.45;;
71202;SDS011;58929;47.490;19.090;2023-01-29T11:13:23;19.10;;;10.60;;
71202;SDS011;58929;47.490;19.090;2023-01-29T11:15:54;17.33;;;10.93;;
71202;SDS011;58929;47.490;19.090;2023-01-29T11:18:22;18.88;;;10.57;;
71202;SDS011;58929;47.490;19.090;2023-01-29T11:20:58;18.60;;;11.07;;
71202;SDS011;58929;47.490;19.090;2023-01-29T11:23:27;17.27;;;9.73;;
71202;SDS011;58929;47.490;19.090;2023-01-29T11:25:57;19.35;;;10.98;;
71202;SDS011;58929;47.490;19.090;2023-01-29T11:28:36;17.75;;;10.57;;
71202;SDS011;58929;47.490;19.090;2023-01-29T11:31:13;19.52;;;11.45;;
71202;SDS011;58929;47.490;19.090;2023-01-29T11:33:42;17.30;;;10.85;;
71202;SDS011;58929;47.490;19.090;2023-01-29T11:36:20;17.25;;;10.80;;
71202;SDS011;58929;47.490;19.090;2023-01-29T11:38:58;19.48;;;11.43;;
71202;SDS011;58929;47.490;19.090;2023-01-29T11:41:31;22.00;;;11.10;;
71202;SDS011;58929;47.490;19.090;2023-01-29T11:44:21;18.17;;;11.07;;
71202;SDS011;58929;47.490;19.090;2023-01-29T11:46:51;20.20;;;10.18;;
71202;SDS011;58929;47.490;19.090;2023-01-29T11:49:20;19.33;;;10.20;;
71202;SDS011;58929;47.490;19.090;2023-01-29T11:51:50;20.63;;;10.95;;
71202;SDS011;58929;47.490;19.090;2023-01-29T11:54:18;17.55;;;10.75;;
71202;SDS011;58929;47.490;19.090;2023-01-29T11:56:47;18.52;;;10.25;;
71202;SDS011;58929;47.490;19.090;2023-01-29T11:59:24;14.85;;;10.15;;
71202;SDS011;58929;47.490;19.090;2023-01-29T12:01:54;16.45;;;10.07;;
71202;SDS011;58929;47.490;19.090;2023-01-29T12:04:23;17.75;;;10.75;;
71202;SDS011;58929;47.490;19.090;2023-01-29T12:06:52;21.77;;;11.27;;
71202;SDS011;58929;47.490;19.090;2023-01-29T12:09:21;15.27;;;9.80;;
71202;SDS011;58929;47.490;19.090;2023-01-29T12:11:50;17.90;;;10.52;;
71202;SDS011;58929;47.490;19.090;2023-01-29T12:14:25;17.38;;;10.70;;
71202;SDS011;58929;47.490;19.090;2023-01-29T12:16:55;17.13;;;10.48;;
71202;SDS011;58929;47.490;19.090;2023-01-29T12:19:26;16.80;;;10.48;;
71202;SDS011;58929;47.490;19.090;2023-01-29T12:21:58;17.80;;;10.75;;
71202;SDS011;58929;47.490;19.090;2023-01-29T12:24:30;20.05;;;11.18;;
71202;SDS011;58929;47.490;19.090;2023-01-29T12:27:03;15.63;;;9.73;;
71202;SDS011;58929;47.490;19.090;2023-01-29T12:29:39;19.95;;;10.95;;
71202;SDS011;58929;47.490;19.090;2023-01-29T12:32:11;16.83;;;10.30;;
71202;SDS011;58929;47.490;19.090;2023-01-29T12:34:42;17.02;;;10.95;;
71202;SDS011;58929;47.490;19.090;2023-01-29T12:37:14;21.40;;;13.05;;
71202;SDS011;58929;47.490;19.090;2023-01-29T12:39:44;15.07;;;9.60;;
71202;SDS011;58929;47.490;19.090;2023-01-29T12:42:14;17.58;;;11.00;;
71202;SDS011;58929;47.490;19.090;2023-01-29T12:44:45;16.15;;;9.93;;
71202;SDS011;58929;47.490;19.090;2023-01-29T12:47:16;19.77;;;10.13;;
71202;SDS011;58929;47.490;19.090;2023-01-29T12:49:49;17.33;;;10.02;;
71202;SDS011;58929;47.490;19.090;2023-01-29T12:52:20;13.98;;;8.63;;
71202;SDS011;58929;47.490;19.090;2023-01-29T12:54:51;16.40;;;9.50;;
71202;SDS011;58929;47.490;19.090;2023-01-29T12:57:21;14.18;;;9.20;;
71202;SDS011;58929;47.490;19.090;2023-01-29T12:59:53;26.73;;;9.52;;
71202;SDS011;58929;47.490;19.090;2023-01-29T13:02:25;14.70;;;9.35;;
71202;SDS011;58929;47.490;19.090;2023-01-29T13:04:58;17.48;;;9.60;;
71202;SDS011;58929;47.490;19.090;2023-01-29T13:07:29;13.40;;;8.93;;
71202;SDS011;58929;47.490;19.090;2023-01-29T13:10:00;13.80;;;8.98;;
71202;SDS011;58929;47.490;19.090;2023-01-29T13:12:31;16.35;;;9.40;;
71202;SDS011;58929;47.490;19.090;2023-01-29T13:15:04;16.02;;;9.48;;
71202;SDS011;58929;47.490;19.090;2023-01-29T13:17:34;11.95;;;7.68;;
71202;SDS011;58929;47.490;19.090;2023-01-29T13:20:04;11.25;;;7.90;;
71202;SDS011;58929;47.490;19.090;2023-01-29T13:22:37;10.50;;;7.68;;
71202;SDS011;58929;47.490;19.090;2023-01-29T13:25:10;10.57;;;7.30;;
71202;SDS011;58929;47.490;19.090;2023-01-29T13:27:39;14.50;;;8.13;;
71202;SDS011;58929;47.490;19.090;2023-01-29T13:30:21;11.18;;;7.88;;
71202;SDS011;58929;47.490;19.090;2023-01-29T13:32:50;11.82;;;7.75;;
71202;SDS011;58929;47.490;19.090;2023-01-29T13:35:19;13.30;;;8.27;;
71202;SDS011;58929;47.490;19.090;2023-01-29T13:37:48;11.55;;;7.65;;
71202;SDS011;58929;47.490;19.090;2023-01-29T13:40:18;11.90;;;8.50;;
71202;SDS011;58929;47.490;19.090;2023-01-29T13:42:48;11.63;;;8.32;;
71202;SDS011;58929;47.490;19.090;2023-01-29T13:45:20;12.93;;;8.45;;
71202;SDS011;58929;47.490;19.090;2023-01-29T13:47:49;14.23;;;8.75;;
71202;SDS011;58929;47.490;19.090;2023-01-29T13:50:18;12.90;;;9.15;;
71202;SDS011;58929;47.490;19.090;2023-01-29T13:52:51;10.05;;;7.35;;
71202;SDS011;58929;47.490;19.090;2023-01-29T13:55:21;10.10;;;6.97;;
71202;SDS011;58929;47.490;19.090;2023-01-29T13:57:53;11.20;;;7.60;;
71202;SDS011;58929;47.490;19.090;2023-01-29T14:09:33;10.80;;;7.80;;
71202;SDS011;58929;47.490;19.090;2023-01-29T14:12:38;10.60;;;7.32;;
71202;SDS011;58929;47.490;19.090;2023-01-29T14:15:19;12.98;;;8.43;;
71202;SDS011;58929;47.490;19.090;2023-01-29T14:17:54;11.93;;;9.38;;
71202;SDS011;58929;47.490;19.090;2023-01-29T14:20:27;12.02;;;8.00;;
71202;SDS011;58929;47.490;19.090;2023-01-29T14:23:16;10.75;;;7.53;;
71202;SDS011;58929;47.490;19.090;2023-01-29T14:25:49;11.90;;;9.25;;
71202;SDS011;58929;47.490;19.090;2023-01-29T14:28:19;10.38;;;7.47;;
71202;SDS011;58929;47.490;19.090;2023-01-29T14:30:48;11.10;;;7.32;;
71202;SDS011;58929;47.490;19.090;2023-01-29T14:33:26;12.27;;;7.80;;
71202;SDS011;58929;47.490;19.090;2023-01-29T14:35:55;11.15;;;7.75;;
71202;SDS011;58929;47.490;19.090;2023-01-29T14:38:25;9.80;;;7.57;;
71202;SDS011;58929;47.490;19.090;2023-01-29T14:41:03;11.25;;;7.57;;
71202;SDS011;58929;47.490;19.090;2023-01-29T14:43:32;11.75;;;7.97;;
71202;SDS011;58929;47.490;19.090;2023-01-29T14:48:47;11.45;;;8.40;;
71202;SDS011;58929;47.490;19.090;2023-01-29T14:51:15;10.52;;;7.63;;
71202;SDS011;58929;47.490;19.090;2023-01-29T14:53:55;13.45;;;9.57;;